sensor_id;sensor_type;location;lat;lon;timestamp;temperature;humidity
30893;DHT22;17595;50.884;4.346;2024-03-06T00:00:56;11.10;99.90
30893;DHT22;17595;50.884;4.346;2024-03-06T00:03:22;11.10;99.90
30893;DHT22;17595;50.884;4.346;2024-03-06T00:05:48;11.00;99.90
30893;DHT22;17595;50.884;4.346;2024-03-06T00:08:14;11.00;99.90
30893;DHT22;17595;50.884;4.346;2024-03-06T00:10:41;10.90;99.90
30893;DHT22;17595;50.884;4.346;2024-03-06T00:13:06;10.90;99.90
30893;DHT22;17595;50.884;4.346;2024-03-06T00:15:32;10.80;99.90
30893;DHT22;17595;50.884;4.346;2024-03-06T00:17:57;10.80;99.90
30893;DHT22;17595;50.884;4.346;2024-03-06T00:20:24;10.70;99.90
30893;DHT22;17595;50.884;4.346;2024-03-06T00:22:49;10.70;99.90
30893;DHT22;17595;50.884;4.346;2024-03-06T00:25:15;10.80;99.90
30893;DHT22;17595;50.884;4.346;2024-03-06T00:27:41;10.80;99.90
30893;DHT22;17595;50.884;4.346;2024-03-06T00:30:07;10.90;99.90
30893;DHT22;17595;50.884;4.346;2024-03-06T00:32:33;10.90;99.90
30893;DHT22;17595;50.884;4.346;2024-03-06T00:34:58;10.80;99.90
30893;DHT22;17595;50.884;4.346;2024-03-06T00:37:24;10.70;99.90
30893;DHT22;17595;50.884;4.346;2024-03-06T00:39:50;10.70;99.90
30893;DHT22;17595;50.884;4.346;2024-03-06T00:42:15;10.70;99.90
30893;DHT22;17595;50.884;4.346;2024-03-06T00:44:41;10.70;99.90
30893;DHT22;17595;50.884;4.346;2024-03-06T00:47:07;10.60;99.90
30893;DHT22;17595;50.884;4.346;2024-03-06T00:49:32;10.60;99.90
30893;DHT22;17595;50.884;4.346;2024-03-06T00:51:58;10.60;99.90
30893;DHT22;17595;50.884;4.346;2024-03-06T00:54:23;10.50;99.90
30893;DHT22;17595;50.884;4.346;2024-03-06T00:56:49;10.50;99.90
30893;DHT22;17595;50.884;4.346;2024-03-06T00:59:15;10.50;99.90
30893;DHT22;17595;50.884;4.346;2024-03-06T01:01:41;10.40;99.90
30893;DHT22;17595;50.884;4.346;2024-03-06T01:04:07;10.50;99.90
30893;DHT22;17595;50.884;4.346;2024-03-06T01:06:33;10.50;99.90
30893;DHT22;17595;50.884;4.346;2024-03-06T01:08:58;10.50;99.90
30893;DHT22;17595;50.884;4.346;2024-03-06T01:11:24;10.60;99.90
30893;DHT22;17595;50.884;4.346;2024-03-06T01:13:51;10.50;99.90
30893;DHT22;17595;50.884;4.346;2024-03-06T01:16:17;10.40;99.90
30893;DHT22;17595;50.884;4.346;2024-03-06T01:18:43;10.30;99.90
30893;DHT22;17595;50.884;4.346;2024-03-06T01:21:09;10.20;99.90
30893;DHT22;17595;50.884;4.346;2024-03-06T01:23:34;10.10;99.90
30893;DHT22;17595;50.884;4.346;2024-03-06T01:26:00;10.10;99.90
30893;DHT22;17595;50.884;4.346;2024-03-06T01:28:26;10.00;99.90
30893;DHT22;17595;50.884;4.346;2024-03-06T01:30:51;10.00;99.90
30893;DHT22;17595;50.884;4.346;2024-03-06T01:33:17;10.00;99.90
30893;DHT22;17595;50.884;4.346;2024-03-06T01:35:43;10.00;99.90
30893;DHT22;17595;50.884;4.346;2024-03-06T01:38:08;10.00;99.90
30893;DHT22;17595;50.884;4.346;2024-03-06T01:40:35;9.90;99.90
30893;DHT22;17595;50.884;4.346;2024-03-06T01:43:01;9.90;99.90
30893;DHT22;17595;50.884;4.346;2024-03-06T01:45:27;9.90;99.90
30893;DHT22;17595;50.884;4.346;2024-03-06T01:47:52;9.90;99.90
30893;DHT22;17595;50.884;4.346;2024-03-06T01:50:18;9.90;99.90
30893;DHT22;17595;50.884;4.346;2024-03-06T01:52:45;9.80;99.90
30893;DHT22;17595;50.884;4.346;2024-03-06T01:55:12;9.70;99.90
30893;DHT22;17595;50.884;4.346;2024-03-06T01:57:39;9.70;99.90
30893;DHT22;17595;50.884;4.346;2024-03-06T02:00:08;9.70;99.90
30893;DHT22;17595;50.884;4.346;2024-03-06T02:02:41;9.60;99.90
30893;DHT22;17595;50.884;4.346;2024-03-06T02:05:06;9.60;99.90
30893;DHT22;17595;50.884;4.346;2024-03-06T02:07:32;9.60;99.90
30893;DHT22;17595;50.884;4.346;2024-03-06T02:09:58;9.60;99.90
30893;DHT22;17595;50.884;4.346;2024-03-06T02:12:24;9.50;99.90
30893;DHT22;17595;50.884;4.346;2024-03-06T02:14:50;9.40;99.90
30893;DHT22;17595;50.884;4.346;2024-03-06T02:17:15;9.50;99.90
30893;DHT22;17595;50.884;4.346;2024-03-06T02:19:42;9.40;99.90
30893;DHT22;17595;50.884;4.346;2024-03-06T02:22:09;9.40;99.90
30893;DHT22;17595;50.884;4.346;2024-03-06T02:24:36;9.30;99.90
30893;DHT22;17595;50.884;4.346;2024-03-06T02:27:05;9.30;99.90
30893;DHT22;17595;50.884;4.346;2024-03-06T02:29:33;9.30;99.90
30893;DHT22;17595;50.884;4.346;2024-03-06T02:31:59;9.30;99.90
30893;DHT22;17595;50.884;4.346;2024-03-06T02:34:28;9.20;99.90
30893;DHT22;17595;50.884;4.346;2024-03-06T02:36:54;9.20;99.90
30893;DHT22;17595;50.884;4.346;2024-03-06T02:39:19;9.10;99.90
30893;DHT22;17595;50.884;4.346;2024-03-06T02:41:47;9.10;99.90
30893;DHT22;17595;50.884;4.346;2024-03-06T02:44:13;9.10;99.90
30893;DHT22;17595;50.884;4.346;2024-03-06T02:46:40;9.00;99.90
30893;DHT22;17595;50.884;4.346;2024-03-06T02:49:06;9.00;99.90
30893;DHT22;17595;50.884;4.346;2024-03-06T02:51:32;8.90;99.90
30893;DHT22;17595;50.884;4.346;2024-03-06T02:53:57;8.90;99.90
30893;DHT22;17595;50.884;4.346;2024-03-06T02:56:23;8.90;99.90
30893;DHT22;17595;50.884;4.346;2024-03-06T02:58:49;8.90;99.90
30893;DHT22;17595;50.884;4.346;2024-03-06T03:01:15;8.90;99.90
30893;DHT22;17595;50.884;4.346;2024-03-06T03:03:41;8.80;99.90
30893;DHT22;17595;50.884;4.346;2024-03-06T03:06:08;8.80;99.90
30893;DHT22;17595;50.884;4.346;2024-03-06T03:08:33;8.80;99.90
30893;DHT22;17595;50.884;4.346;2024-03-06T03:10:59;8.80;99.90
30893;DHT22;17595;50.884;4.346;2024-03-06T03:13:24;8.80;99.90
30893;DHT22;17595;50.884;4.346;2024-03-06T03:15:50;8.70;99.90
30893;DHT22;17595;50.884;4.346;2024-03-06T03:18:17;8.70;99.90
30893;DHT22;17595;50.884;4.346;2024-03-06T03:20:43;8.70;99.90
30893;DHT22;17595;50.884;4.346;2024-03-06T03:23:09;8.70;99.90
30893;DHT22;17595;50.884;4.346;2024-03-06T03:25:37;8.60;99.90
30893;DHT22;17595;50.884;4.346;2024-03-06T03:28:04;8.60;99.90
30893;DHT22;17595;50.884;4.346;2024-03-06T03:30:30;8.60;99.90
30893;DHT22;17595;50.884;4.346;2024-03-06T03:32:57;8.50;99.90
30893;DHT22;17595;50.884;4.346;2024-03-06T03:35:23;8.50;99.90
30893;DHT22;17595;50.884;4.346;2024-03-06T03:37:53;8.60;99.90
30893;DHT22;17595;50.884;4.346;2024-03-06T03:40:19;8.60;99.90
30893;DHT22;17595;50.884;4.346;2024-03-06T03:42:45;8.60;99.90
30893;DHT22;17595;50.884;4.346;2024-03-06T03:45:10;8.60;99.90
30893;DHT22;17595;50.884;4.346;2024-03-06T03:47:37;8.60;99.90
30893;DHT22;17595;50.884;4.346;2024-03-06T03:50:03;8.70;99.90
30893;DHT22;17595;50.884;4.346;2024-03-06T03:52:29;8.70;99.90
30893;DHT22;17595;50.884;4.346;2024-03-06T03:54:55;8.70;99.90
30893;DHT22;17595;50.884;4.346;2024-03-06T03:57:21;8.70;99.90
30893;DHT22;17595;50.884;4.346;2024-03-06T03:59:46;8.60;99.90
30893;DHT22;17595;50.884;4.346;2024-03-06T04:02:13;8.50;99.90
30893;DHT22;17595;50.884;4.346;2024-03-06T04:04:39;8.40;99.90
30893;DHT22;17595;50.884;4.346;2024-03-06T04:07:05;8.40;99.90
30893;DHT22;17595;50.884;4.346;2024-03-06T04:09:32;8.30;99.90
30893;DHT22;17595;50.884;4.346;2024-03-06T04:12:01;8.30;99.90
30893;DHT22;17595;50.884;4.346;2024-03-06T04:14:27;8.20;99.90
30893;DHT22;17595;50.884;4.346;2024-03-06T04:16:53;8.20;99.90
30893;DHT22;17595;50.884;4.346;2024-03-06T04:19:19;8.20;99.90
30893;DHT22;17595;50.884;4.346;2024-03-06T04:21:44;8.20;99.90
30893;DHT22;17595;50.884;4.346;2024-03-06T04:24:10;8.20;99.90
30893;DHT22;17595;50.884;4.346;2024-03-06T04:26:36;8.20;99.90
30893;DHT22;17595;50.884;4.346;2024-03-06T04:29:01;8.10;99.90
30893;DHT22;17595;50.884;4.346;2024-03-06T04:31:28;8.10;99.90
30893;DHT22;17595;50.884;4.346;2024-03-06T04:33:54;8.10;99.90
30893;DHT22;17595;50.884;4.346;2024-03-06T04:36:20;8.10;99.90
30893;DHT22;17595;50.884;4.346;2024-03-06T04:38:46;8.00;99.90
30893;DHT22;17595;50.884;4.346;2024-03-06T04:41:11;8.00;99.90
30893;DHT22;17595;50.884;4.346;2024-03-06T04:43:37;8.00;99.90
30893;DHT22;17595;50.884;4.346;2024-03-06T04:46:03;7.90;99.90
30893;DHT22;17595;50.884;4.346;2024-03-06T04:48:29;7.90;99.90
30893;DHT22;17595;50.884;4.346;2024-03-06T04:50:55;7.90;99.90
30893;DHT22;17595;50.884;4.346;2024-03-06T04:53:21;7.90;99.90
30893;DHT22;17595;50.884;4.346;2024-03-06T04:55:47;7.90;99.90
30893;DHT22;17595;50.884;4.346;2024-03-06T04:58:12;7.90;99.90
30893;DHT22;17595;50.884;4.346;2024-03-06T05:00:38;7.90;99.90
30893;DHT22;17595;50.884;4.346;2024-03-06T05:03:04;8.00;99.90
30893;DHT22;17595;50.884;4.346;2024-03-06T05:05:30;8.20;99.90
30893;DHT22;17595;50.884;4.346;2024-03-06T05:07:56;8.10;99.90
30893;DHT22;17595;50.884;4.346;2024-03-06T05:10:22;8.00;99.90
30893;DHT22;17595;50.884;4.346;2024-03-06T05:12:47;7.90;99.90
30893;DHT22;17595;50.884;4.346;2024-03-06T05:15:14;7.80;99.90
30893;DHT22;17595;50.884;4.346;2024-03-06T05:17:39;7.90;99.90
30893;DHT22;17595;50.884;4.346;2024-03-06T05:20:06;7.80;99.90
30893;DHT22;17595;50.884;4.346;2024-03-06T05:22:32;7.80;99.90
30893;DHT22;17595;50.884;4.346;2024-03-06T05:24:59;7.80;99.90
30893;DHT22;17595;50.884;4.346;2024-03-06T05:27:25;7.70;99.90
30893;DHT22;17595;50.884;4.346;2024-03-06T05:29:51;7.70;99.90
30893;DHT22;17595;50.884;4.346;2024-03-06T05:32:17;7.70;99.90
30893;DHT22;17595;50.884;4.346;2024-03-06T05:34:43;7.70;99.90
30893;DHT22;17595;50.884;4.346;2024-03-06T05:37:10;7.80;99.90
30893;DHT22;17595;50.884;4.346;2024-03-06T05:39:36;7.80;99.90
30893;DHT22;17595;50.884;4.346;2024-03-06T05:42:04;7.90;99.90
30893;DHT22;17595;50.884;4.346;2024-03-06T05:44:31;7.80;99.90
30893;DHT22;17595;50.884;4.346;2024-03-06T05:46:59;7.70;99.90
30893;DHT22;17595;50.884;4.346;2024-03-06T05:49:24;7.70;99.90
30893;DHT22;17595;50.884;4.346;2024-03-06T05:51:51;7.60;99.90
30893;DHT22;17595;50.884;4.346;2024-03-06T05:54:16;7.60;99.90
30893;DHT22;17595;50.884;4.346;2024-03-06T05:56:42;7.50;99.90
30893;DHT22;17595;50.884;4.346;2024-03-06T05:59:08;7.50;99.90
30893;DHT22;17595;50.884;4.346;2024-03-06T06:01:36;7.50;99.90
30893;DHT22;17595;50.884;4.346;2024-03-06T06:04:02;7.50;99.90
30893;DHT22;17595;50.884;4.346;2024-03-06T06:06:28;7.50;99.90
30893;DHT22;17595;50.884;4.346;2024-03-06T06:08:54;7.50;99.90
30893;DHT22;17595;50.884;4.346;2024-03-06T06:11:19;7.50;99.90
30893;DHT22;17595;50.884;4.346;2024-03-06T06:13:45;7.60;99.90
30893;DHT22;17595;50.884;4.346;2024-03-06T06:16:11;7.60;99.90
30893;DHT22;17595;50.884;4.346;2024-03-06T06:18:37;7.60;99.90
30893;DHT22;17595;50.884;4.346;2024-03-06T06:21:03;7.70;99.90
30893;DHT22;17595;50.884;4.346;2024-03-06T06:23:33;7.80;99.90
30893;DHT22;17595;50.884;4.346;2024-03-06T06:25:58;7.80;99.90
30893;DHT22;17595;50.884;4.346;2024-03-06T06:28:24;7.70;99.90
30893;DHT22;17595;50.884;4.346;2024-03-06T06:30:50;7.60;99.90
30893;DHT22;17595;50.884;4.346;2024-03-06T06:33:18;7.60;99.90
30893;DHT22;17595;50.884;4.346;2024-03-06T06:35:44;7.60;99.90
30893;DHT22;17595;50.884;4.346;2024-03-06T06:38:10;7.60;99.90
30893;DHT22;17595;50.884;4.346;2024-03-06T06:40:35;7.60;99.90
30893;DHT22;17595;50.884;4.346;2024-03-06T06:43:01;7.60;99.90
30893;DHT22;17595;50.884;4.346;2024-03-06T06:45:27;7.70;99.90
30893;DHT22;17595;50.884;4.346;2024-03-06T06:47:52;7.80;99.90
30893;DHT22;17595;50.884;4.346;2024-03-06T06:50:19;7.80;99.90
30893;DHT22;17595;50.884;4.346;2024-03-06T06:52:48;7.90;99.90
30893;DHT22;17595;50.884;4.346;2024-03-06T06:55:14;7.90;99.90
30893;DHT22;17595;50.884;4.346;2024-03-06T06:57:40;7.90;99.90
30893;DHT22;17595;50.884;4.346;2024-03-06T07:00:06;8.00;99.90
30893;DHT22;17595;50.884;4.346;2024-03-06T07:02:39;8.10;99.90
30893;DHT22;17595;50.884;4.346;2024-03-06T07:05:07;7.90;99.90
30893;DHT22;17595;50.884;4.346;2024-03-06T07:07:37;7.80;99.90
30893;DHT22;17595;50.884;4.346;2024-03-06T07:10:06;7.80;99.90
30893;DHT22;17595;50.884;4.346;2024-03-06T07:12:32;7.80;99.90
30893;DHT22;17595;50.884;4.346;2024-03-06T07:14:58;7.90;99.90
30893;DHT22;17595;50.884;4.346;2024-03-06T07:17:25;7.90;99.90
30893;DHT22;17595;50.884;4.346;2024-03-06T07:19:50;7.80;99.90
30893;DHT22;17595;50.884;4.346;2024-03-06T07:22:19;7.80;99.90
30893;DHT22;17595;50.884;4.346;2024-03-06T07:24:44;7.90;99.90
30893;DHT22;17595;50.884;4.346;2024-03-06T07:27:10;8.00;99.90
30893;DHT22;17595;50.884;4.346;2024-03-06T07:29:36;8.20;99.90
30893;DHT22;17595;50.884;4.346;2024-03-06T07:32:03;8.40;99.90
30893;DHT22;17595;50.884;4.346;2024-03-06T07:34:31;8.40;99.90
30893;DHT22;17595;50.884;4.346;2024-03-06T07:36:57;8.40;99.90
30893;DHT22;17595;50.884;4.346;2024-03-06T07:39:25;8.40;99.90
30893;DHT22;17595;50.884;4.346;2024-03-06T07:41:51;8.50;99.90
30893;DHT22;17595;50.884;4.346;2024-03-06T07:44:16;8.40;99.90
30893;DHT22;17595;50.884;4.346;2024-03-06T07:46:42;8.40;99.90
30893;DHT22;17595;50.884;4.346;2024-03-06T07:49:08;8.40;99.90
30893;DHT22;17595;50.884;4.346;2024-03-06T07:51:34;8.50;99.90
30893;DHT22;17595;50.884;4.346;2024-03-06T07:54:01;8.50;99.90
30893;DHT22;17595;50.884;4.346;2024-03-06T07:56:27;8.60;99.90
30893;DHT22;17595;50.884;4.346;2024-03-06T07:58:54;8.60;99.90
30893;DHT22;17595;50.884;4.346;2024-03-06T08:01:20;8.60;99.90
30893;DHT22;17595;50.884;4.346;2024-03-06T08:03:46;8.70;99.90
30893;DHT22;17595;50.884;4.346;2024-03-06T08:06:12;8.70;99.90
30893;DHT22;17595;50.884;4.346;2024-03-06T08:08:44;8.80;99.90
30893;DHT22;17595;50.884;4.346;2024-03-06T08:11:11;8.80;99.90
30893;DHT22;17595;50.884;4.346;2024-03-06T08:13:37;8.90;99.90
30893;DHT22;17595;50.884;4.346;2024-03-06T08:16:07;9.00;99.90
30893;DHT22;17595;50.884;4.346;2024-03-06T08:18:33;9.00;99.90
30893;DHT22;17595;50.884;4.346;2024-03-06T08:21:01;9.10;99.90
30893;DHT22;17595;50.884;4.346;2024-03-06T08:23:28;9.20;99.90
30893;DHT22;17595;50.884;4.346;2024-03-06T08:25:54;9.30;99.90
30893;DHT22;17595;50.884;4.346;2024-03-06T08:28:20;9.30;99.90
30893;DHT22;17595;50.884;4.346;2024-03-06T08:30:46;9.40;99.90
30893;DHT22;17595;50.884;4.346;2024-03-06T08:33:12;9.50;99.90
30893;DHT22;17595;50.884;4.346;2024-03-06T08:35:38;9.50;99.90
30893;DHT22;17595;50.884;4.346;2024-03-06T08:38:03;9.60;99.90
30893;DHT22;17595;50.884;4.346;2024-03-06T08:40:29;9.60;99.90
30893;DHT22;17595;50.884;4.346;2024-03-06T08:42:55;9.60;99.90
30893;DHT22;17595;50.884;4.346;2024-03-06T08:45:21;9.70;99.90
30893;DHT22;17595;50.884;4.346;2024-03-06T08:47:49;9.80;99.90
30893;DHT22;17595;50.884;4.346;2024-03-06T08:50:15;9.80;99.90
30893;DHT22;17595;50.884;4.346;2024-03-06T08:52:40;9.90;99.90
30893;DHT22;17595;50.884;4.346;2024-03-06T08:55:07;9.90;99.90
30893;DHT22;17595;50.884;4.346;2024-03-06T08:57:36;9.90;99.90
30893;DHT22;17595;50.884;4.346;2024-03-06T09:00:02;10.00;99.90
30893;DHT22;17595;50.884;4.346;2024-03-06T09:02:28;10.00;99.90
30893;DHT22;17595;50.884;4.346;2024-03-06T09:04:54;9.90;99.90
30893;DHT22;17595;50.884;4.346;2024-03-06T09:07:20;9.90;99.90
30893;DHT22;17595;50.884;4.346;2024-03-06T09:09:49;9.90;99.90
30893;DHT22;17595;50.884;4.346;2024-03-06T09:12:16;10.00;99.90
30893;DHT22;17595;50.884;4.346;2024-03-06T09:14:41;10.10;99.90
30893;DHT22;17595;50.884;4.346;2024-03-06T09:17:07;10.10;99.90
30893;DHT22;17595;50.884;4.346;2024-03-06T09:19:35;10.10;99.90
30893;DHT22;17595;50.884;4.346;2024-03-06T09:22:00;10.00;99.90
30893;DHT22;17595;50.884;4.346;2024-03-06T09:24:26;10.10;99.90
30893;DHT22;17595;50.884;4.346;2024-03-06T09:26:52;10.10;99.90
30893;DHT22;17595;50.884;4.346;2024-03-06T09:29:18;10.10;99.90
30893;DHT22;17595;50.884;4.346;2024-03-06T09:31:45;9.90;99.90
30893;DHT22;17595;50.884;4.346;2024-03-06T09:34:11;9.60;99.90
30893;DHT22;17595;50.884;4.346;2024-03-06T09:36:48;9.70;99.90
30893;DHT22;17595;50.884;4.346;2024-03-06T09:39:15;9.90;99.90
30893;DHT22;17595;50.884;4.346;2024-03-06T09:41:49;10.10;99.90
30893;DHT22;17595;50.884;4.346;2024-03-06T09:44:16;10.10;99.90
30893;DHT22;17595;50.884;4.346;2024-03-06T09:46:42;10.10;99.90
30893;DHT22;17595;50.884;4.346;2024-03-06T09:49:10;10.20;99.90
30893;DHT22;17595;50.884;4.346;2024-03-06T09:51:38;10.20;99.90
30893;DHT22;17595;50.884;4.346;2024-03-06T09:54:07;10.30;99.90
30893;DHT22;17595;50.884;4.346;2024-03-06T09:56:33;10.20;99.90
30893;DHT22;17595;50.884;4.346;2024-03-06T09:58:59;10.20;99.90
30893;DHT22;17595;50.884;4.346;2024-03-06T10:01:25;10.20;99.90
30893;DHT22;17595;50.884;4.346;2024-03-06T10:03:53;10.10;99.90
30893;DHT22;17595;50.884;4.346;2024-03-06T10:06:19;10.10;99.90
30893;DHT22;17595;50.884;4.346;2024-03-06T10:08:46;10.30;99.90
30893;DHT22;17595;50.884;4.346;2024-03-06T10:11:12;10.40;99.90
30893;DHT22;17595;50.884;4.346;2024-03-06T10:13:37;10.40;99.90
30893;DHT22;17595;50.884;4.346;2024-03-06T10:16:04;10.20;99.90
30893;DHT22;17595;50.884;4.346;2024-03-06T10:18:34;10.20;99.90
30893;DHT22;17595;50.884;4.346;2024-03-06T10:21:00;10.30;99.90
30893;DHT22;17595;50.884;4.346;2024-03-06T10:23:26;10.40;99.90
30893;DHT22;17595;50.884;4.346;2024-03-06T10:25:54;10.60;99.90
30893;DHT22;17595;50.884;4.346;2024-03-06T10:28:22;10.90;99.90
30893;DHT22;17595;50.884;4.346;2024-03-06T10:30:49;11.10;99.90
30893;DHT22;17595;50.884;4.346;2024-03-06T10:33:19;11.50;99.90
30893;DHT22;17595;50.884;4.346;2024-03-06T10:35:45;11.70;99.90
30893;DHT22;17595;50.884;4.346;2024-03-06T10:38:12;11.80;99.90
30893;DHT22;17595;50.884;4.346;2024-03-06T10:40:39;11.90;99.90
30893;DHT22;17595;50.884;4.346;2024-03-06T10:43:07;12.10;99.90
30893;DHT22;17595;50.884;4.346;2024-03-06T10:48:15;11.30;99.90
30893;DHT22;17595;50.884;4.346;2024-03-06T10:50:42;11.30;99.90
30893;DHT22;17595;50.884;4.346;2024-03-06T10:53:10;11.40;99.90
30893;DHT22;17595;50.884;4.346;2024-03-06T10:55:36;11.60;99.90
30893;DHT22;17595;50.884;4.346;2024-03-06T10:58:06;11.80;99.90
30893;DHT22;17595;50.884;4.346;2024-03-06T11:00:46;11.80;99.90
30893;DHT22;17595;50.884;4.346;2024-03-06T11:03:13;12.00;99.90
30893;DHT22;17595;50.884;4.346;2024-03-06T11:05:40;11.90;99.90
30893;DHT22;17595;50.884;4.346;2024-03-06T11:08:09;11.90;99.90
30893;DHT22;17595;50.884;4.346;2024-03-06T11:10:38;12.00;99.90
30893;DHT22;17595;50.884;4.346;2024-03-06T11:13:20;12.40;99.90
30893;DHT22;17595;50.884;4.346;2024-03-06T11:15:50;12.60;99.90
30893;DHT22;17595;50.884;4.346;2024-03-06T11:23:27;13.20;99.90
30893;DHT22;17595;50.884;4.346;2024-03-06T11:28:25;12.70;99.90
30893;DHT22;17595;50.884;4.346;2024-03-06T11:31:05;12.50;99.90
30893;DHT22;17595;50.884;4.346;2024-03-06T11:33:42;12.70;99.90
30893;DHT22;17595;50.884;4.346;2024-03-06T11:36:27;12.80;99.90
30893;DHT22;17595;50.884;4.346;2024-03-06T11:41:28;12.80;99.90
30893;DHT22;17595;50.884;4.346;2024-03-06T11:43:54;13.00;99.90
30893;DHT22;17595;50.884;4.346;2024-03-06T11:46:23;13.20;99.90
30893;DHT22;17595;50.884;4.346;2024-03-06T11:48:55;13.20;99.90
30893;DHT22;17595;50.884;4.346;2024-03-06T11:51:22;13.20;99.90
30893;DHT22;17595;50.884;4.346;2024-03-06T11:53:52;13.30;99.90
30893;DHT22;17595;50.884;4.346;2024-03-06T11:56:18;13.40;99.90
30893;DHT22;17595;50.884;4.346;2024-03-06T11:58:46;13.40;99.90
30893;DHT22;17595;50.884;4.346;2024-03-06T12:01:13;13.40;99.90
30893;DHT22;17595;50.884;4.346;2024-03-06T12:03:39;13.40;99.90
30893;DHT22;17595;50.884;4.346;2024-03-06T12:06:06;13.30;99.90
30893;DHT22;17595;50.884;4.346;2024-03-06T12:08:33;13.00;99.90
30893;DHT22;17595;50.884;4.346;2024-03-06T12:11:02;12.80;99.90
30893;DHT22;17595;50.884;4.346;2024-03-06T12:13:29;12.50;99.90
30893;DHT22;17595;50.884;4.346;2024-03-06T12:15:55;12.20;99.90
30893;DHT22;17595;50.884;4.346;2024-03-06T12:18:21;12.10;99.90
30893;DHT22;17595;50.884;4.346;2024-03-06T12:20:50;12.30;99.90
30893;DHT22;17595;50.884;4.346;2024-03-06T12:23:20;12.20;99.90
30893;DHT22;17595;50.884;4.346;2024-03-06T12:25:47;12.40;99.90
30893;DHT22;17595;50.884;4.346;2024-03-06T12:28:13;12.80;99.90
30893;DHT22;17595;50.884;4.346;2024-03-06T12:30:42;13.00;99.90
30893;DHT22;17595;50.884;4.346;2024-03-06T12:33:09;13.10;99.90
30893;DHT22;17595;50.884;4.346;2024-03-06T12:35:37;12.90;99.90
30893;DHT22;17595;50.884;4.346;2024-03-06T12:38:16;12.90;99.90
30893;DHT22;17595;50.884;4.346;2024-03-06T12:40:42;13.10;99.90
30893;DHT22;17595;50.884;4.346;2024-03-06T12:43:08;13.20;99.90
30893;DHT22;17595;50.884;4.346;2024-03-06T12:45:35;13.30;99.90
30893;DHT22;17595;50.884;4.346;2024-03-06T12:48:03;13.50;99.90
30893;DHT22;17595;50.884;4.346;2024-03-06T12:50:28;13.60;99.90
30893;DHT22;17595;50.884;4.346;2024-03-06T12:52:56;13.80;99.90
30893;DHT22;17595;50.884;4.346;2024-03-06T12:55:21;13.90;99.90
30893;DHT22;17595;50.884;4.346;2024-03-06T12:57:47;14.00;99.90
30893;DHT22;17595;50.884;4.346;2024-03-06T13:00:13;14.10;99.90
30893;DHT22;17595;50.884;4.346;2024-03-06T13:02:42;14.20;99.90
30893;DHT22;17595;50.884;4.346;2024-03-06T13:05:09;14.40;99.90
30893;DHT22;17595;50.884;4.346;2024-03-06T13:07:35;14.40;99.90
30893;DHT22;17595;50.884;4.346;2024-03-06T13:10:02;14.50;99.90
30893;DHT22;17595;50.884;4.346;2024-03-06T13:12:28;14.70;99.90
30893;DHT22;17595;50.884;4.346;2024-03-06T13:14:53;14.80;99.90
30893;DHT22;17595;50.884;4.346;2024-03-06T13:17:19;14.80;99.90
30893;DHT22;17595;50.884;4.346;2024-03-06T13:19:45;14.80;99.90
30893;DHT22;17595;50.884;4.346;2024-03-06T13:22:11;14.80;99.90
30893;DHT22;17595;50.884;4.346;2024-03-06T13:24:36;14.90;99.90
30893;DHT22;17595;50.884;4.346;2024-03-06T13:27:03;15.00;99.90
30893;DHT22;17595;50.884;4.346;2024-03-06T13:29:29;15.00;99.90
30893;DHT22;17595;50.884;4.346;2024-03-06T13:31:55;15.00;99.90
30893;DHT22;17595;50.884;4.346;2024-03-06T13:34:20;14.90;99.90
30893;DHT22;17595;50.884;4.346;2024-03-06T13:36:46;14.90;99.90
30893;DHT22;17595;50.884;4.346;2024-03-06T13:39:12;14.90;99.90
30893;DHT22;17595;50.884;4.346;2024-03-06T13:41:37;14.90;99.90
30893;DHT22;17595;50.884;4.346;2024-03-06T13:44:03;15.00;99.90
30893;DHT22;17595;50.884;4.346;2024-03-06T13:46:29;15.00;99.90
30893;DHT22;17595;50.884;4.346;2024-03-06T13:48:55;15.00;99.90
30893;DHT22;17595;50.884;4.346;2024-03-06T13:51:21;15.00;99.90
30893;DHT22;17595;50.884;4.346;2024-03-06T13:53:46;14.90;99.90
30893;DHT22;17595;50.884;4.346;2024-03-06T13:56:12;14.80;99.90
30893;DHT22;17595;50.884;4.346;2024-03-06T13:58:38;14.70;99.90
30893;DHT22;17595;50.884;4.346;2024-03-06T14:01:04;14.70;99.90
30893;DHT22;17595;50.884;4.346;2024-03-06T14:03:31;14.70;99.90
30893;DHT22;17595;50.884;4.346;2024-03-06T14:06:00;14.60;99.90
30893;DHT22;17595;50.884;4.346;2024-03-06T14:08:25;14.70;99.90
30893;DHT22;17595;50.884;4.346;2024-03-06T14:10:51;14.70;99.90
30893;DHT22;17595;50.884;4.346;2024-03-06T14:13:17;14.80;99.90
30893;DHT22;17595;50.884;4.346;2024-03-06T14:15:42;14.90;99.90
30893;DHT22;17595;50.884;4.346;2024-03-06T14:18:08;15.00;99.90
30893;DHT22;17595;50.884;4.346;2024-03-06T14:20:34;14.90;99.90
30893;DHT22;17595;50.884;4.346;2024-03-06T14:23:01;14.90;99.90
30893;DHT22;17595;50.884;4.346;2024-03-06T14:25:26;14.80;99.90
30893;DHT22;17595;50.884;4.346;2024-03-06T14:27:52;14.80;99.90
30893;DHT22;17595;50.884;4.346;2024-03-06T14:30:18;14.80;99.90
30893;DHT22;17595;50.884;4.346;2024-03-06T14:32:45;14.60;99.90
30893;DHT22;17595;50.884;4.346;2024-03-06T14:35:12;14.50;99.90
30893;DHT22;17595;50.884;4.346;2024-03-06T14:37:38;14.30;99.90
30893;DHT22;17595;50.884;4.346;2024-03-06T14:40:05;14.30;99.90
30893;DHT22;17595;50.884;4.346;2024-03-06T14:42:34;14.30;99.90
30893;DHT22;17595;50.884;4.346;2024-03-06T14:45:00;14.30;99.90
30893;DHT22;17595;50.884;4.346;2024-03-06T14:47:26;14.20;99.90
30893;DHT22;17595;50.884;4.346;2024-03-06T14:49:52;14.30;99.90
30893;DHT22;17595;50.884;4.346;2024-03-06T14:52:19;14.30;99.90
30893;DHT22;17595;50.884;4.346;2024-03-06T14:54:45;14.30;99.90
30893;DHT22;17595;50.884;4.346;2024-03-06T14:57:13;14.30;99.90
30893;DHT22;17595;50.884;4.346;2024-03-06T14:59:38;14.30;99.90
30893;DHT22;17595;50.884;4.346;2024-03-06T15:02:04;14.20;99.90
30893;DHT22;17595;50.884;4.346;2024-03-06T15:04:30;14.30;99.90
30893;DHT22;17595;50.884;4.346;2024-03-06T15:06:56;14.30;99.90
30893;DHT22;17595;50.884;4.346;2024-03-06T15:09:22;14.10;99.90
30893;DHT22;17595;50.884;4.346;2024-03-06T15:11:51;14.20;99.90
30893;DHT22;17595;50.884;4.346;2024-03-06T15:14:18;14.30;99.90
30893;DHT22;17595;50.884;4.346;2024-03-06T15:16:44;14.30;99.90
30893;DHT22;17595;50.884;4.346;2024-03-06T15:19:10;14.40;99.90
30893;DHT22;17595;50.884;4.346;2024-03-06T15:21:36;14.40;99.90
30893;DHT22;17595;50.884;4.346;2024-03-06T15:24:03;14.50;99.90
30893;DHT22;17595;50.884;4.346;2024-03-06T15:26:28;14.40;99.90
30893;DHT22;17595;50.884;4.346;2024-03-06T15:28:54;14.40;99.90
30893;DHT22;17595;50.884;4.346;2024-03-06T15:31:20;14.30;99.90
30893;DHT22;17595;50.884;4.346;2024-03-06T15:33:46;14.30;99.90
30893;DHT22;17595;50.884;4.346;2024-03-06T15:36:13;14.30;99.90
30893;DHT22;17595;50.884;4.346;2024-03-06T15:38:39;14.20;99.90
30893;DHT22;17595;50.884;4.346;2024-03-06T15:41:05;14.20;99.90
30893;DHT22;17595;50.884;4.346;2024-03-06T15:43:37;14.00;99.90
30893;DHT22;17595;50.884;4.346;2024-03-06T15:46:03;14.00;99.90